sensor_id;sensor_type;location;lat;lon;timestamp;temperature;humidity
22192;DHT22;11261;52.456;10.850;2022-07-06T00:01:18;17.90;99.90
22192;DHT22;11261;52.456;10.850;2022-07-06T00:03:47;18.00;99.90
22192;DHT22;11261;52.456;10.850;2022-07-06T00:06:21;17.80;99.90
22192;DHT22;11261;52.456;10.850;2022-07-06T00:08:51;17.90;99.90
22192;DHT22;11261;52.456;10.850;2022-07-06T00:11:19;17.90;99.90
22192;DHT22;11261;52.456;10.850;2022-07-06T00:13:47;17.80;99.90
22192;DHT22;11261;52.456;10.850;2022-07-06T00:16:15;17.70;99.90
22192;DHT22;11261;52.456;10.850;2022-07-06T00:18:43;17.80;99.90
22192;DHT22;11261;52.456;10.850;2022-07-06T00:21:12;17.70;99.90
22192;DHT22;11261;52.456;10.850;2022-07-06T00:23:40;17.70;99.90
22192;DHT22;11261;52.456;10.850;2022-07-06T00:26:10;17.70;99.90
22192;DHT22;11261;52.456;10.850;2022-07-06T00:28:38;17.70;99.90
22192;DHT22;11261;52.456;10.850;2022-07-06T00:31:06;17.60;99.90
22192;DHT22;11261;52.456;10.850;2022-07-06T00:33:35;17.50;99.90
22192;DHT22;11261;52.456;10.850;2022-07-06T00:36:03;17.40;99.90
22192;DHT22;11261;52.456;10.850;2022-07-06T00:38:32;17.30;99.90
22192;DHT22;11261;52.456;10.850;2022-07-06T00:41:00;17.30;99.90
22192;DHT22;11261;52.456;10.850;2022-07-06T00:43:46;17.20;99.90
22192;DHT22;11261;52.456;10.850;2022-07-06T00:46:14;17.10;99.90
22192;DHT22;11261;52.456;10.850;2022-07-06T00:48:43;17.10;99.90
22192;DHT22;11261;52.456;10.850;2022-07-06T00:51:12;17.00;99.90
22192;DHT22;11261;52.456;10.850;2022-07-06T00:53:41;17.00;99.90
22192;DHT22;11261;52.456;10.850;2022-07-06T00:56:10;16.90;99.90
22192;DHT22;11261;52.456;10.850;2022-07-06T00:58:40;16.80;99.90
22192;DHT22;11261;52.456;10.850;2022-07-06T01:01:08;16.50;99.90
22192;DHT22;11261;52.456;10.850;2022-07-06T01:03:37;16.50;99.90
22192;DHT22;11261;52.456;10.850;2022-07-06T01:06:05;16.50;99.90
22192;DHT22;11261;52.456;10.850;2022-07-06T01:08:33;16.60;99.90
22192;DHT22;11261;52.456;10.850;2022-07-06T01:11:01;16.50;99.90
22192;DHT22;11261;52.456;10.850;2022-07-06T01:13:31;16.30;99.90
22192;DHT22;11261;52.456;10.850;2022-07-06T01:16:01;16.30;99.90
22192;DHT22;11261;52.456;10.850;2022-07-06T01:18:30;16.30;99.90
22192;DHT22;11261;52.456;10.850;2022-07-06T01:21:08;16.30;99.90
22192;DHT22;11261;52.456;10.850;2022-07-06T01:23:40;16.30;99.90
22192;DHT22;11261;52.456;10.850;2022-07-06T01:26:11;16.30;99.90
22192;DHT22;11261;52.456;10.850;2022-07-06T01:28:40;16.30;99.90
22192;DHT22;11261;52.456;10.850;2022-07-06T01:31:14;16.20;99.90
22192;DHT22;11261;52.456;10.850;2022-07-06T01:33:43;16.10;99.90
22192;DHT22;11261;52.456;10.850;2022-07-06T01:36:13;16.00;99.90
22192;DHT22;11261;52.456;10.850;2022-07-06T01:38:46;16.00;99.90
22192;DHT22;11261;52.456;10.850;2022-07-06T01:41:14;16.10;99.90
22192;DHT22;11261;52.456;10.850;2022-07-06T01:43:42;16.10;99.90
22192;DHT22;11261;52.456;10.850;2022-07-06T01:46:11;16.10;99.90
22192;DHT22;11261;52.456;10.850;2022-07-06T01:48:39;15.90;99.90
22192;DHT22;11261;52.456;10.850;2022-07-06T01:51:08;15.90;99.90
22192;DHT22;11261;52.456;10.850;2022-07-06T01:53:38;16.00;99.90
22192;DHT22;11261;52.456;10.850;2022-07-06T01:56:07;15.90;99.90
22192;DHT22;11261;52.456;10.850;2022-07-06T01:58:35;16.00;99.90
22192;DHT22;11261;52.456;10.850;2022-07-06T02:01:07;16.00;99.90
22192;DHT22;11261;52.456;10.850;2022-07-06T02:03:35;16.00;99.90
22192;DHT22;11261;52.456;10.850;2022-07-06T02:06:04;15.90;99.90
22192;DHT22;11261;52.456;10.850;2022-07-06T02:08:32;15.90;99.90
22192;DHT22;11261;52.456;10.850;2022-07-06T02:11:02;15.90;99.90
22192;DHT22;11261;52.456;10.850;2022-07-06T02:13:31;15.80;99.90
22192;DHT22;11261;52.456;10.850;2022-07-06T02:15:59;15.80;99.90
22192;DHT22;11261;52.456;10.850;2022-07-06T02:18:27;15.70;99.90
22192;DHT22;11261;52.456;10.850;2022-07-06T02:20:56;15.80;99.90
22192;DHT22;11261;52.456;10.850;2022-07-06T02:23:24;15.80;99.90
22192;DHT22;11261;52.456;10.850;2022-07-06T02:25:53;15.80;99.90
22192;DHT22;11261;52.456;10.850;2022-07-06T02:28:22;15.70;99.90
22192;DHT22;11261;52.456;10.850;2022-07-06T02:30:51;15.60;99.90
22192;DHT22;11261;52.456;10.850;2022-07-06T02:33:19;15.70;99.90
22192;DHT22;11261;52.456;10.850;2022-07-06T02:35:47;15.70;99.90
22192;DHT22;11261;52.456;10.850;2022-07-06T02:38:16;15.80;99.90
22192;DHT22;11261;52.456;10.850;2022-07-06T02:40:44;15.90;99.90
22192;DHT22;11261;52.456;10.850;2022-07-06T02:43:12;15.80;99.90
22192;DHT22;11261;52.456;10.850;2022-07-06T02:45:42;15.80;99.90
22192;DHT22;11261;52.456;10.850;2022-07-06T02:48:10;15.90;99.90
22192;DHT22;11261;52.456;10.850;2022-07-06T02:50:38;15.80;99.90
22192;DHT22;11261;52.456;10.850;2022-07-06T02:53:07;15.70;99.90
22192;DHT22;11261;52.456;10.850;2022-07-06T02:55:35;15.80;99.90
22192;DHT22;11261;52.456;10.850;2022-07-06T02:58:03;15.80;99.90
22192;DHT22;11261;52.456;10.850;2022-07-06T03:00:31;15.70;99.90
22192;DHT22;11261;52.456;10.850;2022-07-06T03:03:01;15.70;99.90
22192;DHT22;11261;52.456;10.850;2022-07-06T03:05:29;15.70;99.90
22192;DHT22;11261;52.456;10.850;2022-07-06T03:07:57;15.60;99.90
22192;DHT22;11261;52.456;10.850;2022-07-06T03:10:25;15.70;99.90
22192;DHT22;11261;52.456;10.850;2022-07-06T03:12:54;15.70;99.90
22192;DHT22;11261;52.456;10.850;2022-07-06T03:15:22;15.60;99.90
22192;DHT22;11261;52.456;10.850;2022-07-06T03:17:50;15.50;99.90
22192;DHT22;11261;52.456;10.850;2022-07-06T03:20:20;15.50;99.90
22192;DHT22;11261;52.456;10.850;2022-07-06T03:22:48;15.60;99.90
22192;DHT22;11261;52.456;10.850;2022-07-06T03:25:17;15.60;99.90
22192;DHT22;11261;52.456;10.850;2022-07-06T03:27:45;15.60;99.90
22192;DHT22;11261;52.456;10.850;2022-07-06T03:30:13;15.60;99.90
22192;DHT22;11261;52.456;10.850;2022-07-06T03:32:42;15.50;99.90
22192;DHT22;11261;52.456;10.850;2022-07-06T03:35:10;15.60;99.90
22192;DHT22;11261;52.456;10.850;2022-07-06T03:37:39;15.60;99.90
22192;DHT22;11261;52.456;10.850;2022-07-06T03:40:08;15.60;99.90
22192;DHT22;11261;52.456;10.850;2022-07-06T03:42:37;15.50;99.90
22192;DHT22;11261;52.456;10.850;2022-07-06T03:45:05;15.80;99.90
22192;DHT22;11261;52.456;10.850;2022-07-06T03:47:34;15.70;99.90
22192;DHT22;11261;52.456;10.850;2022-07-06T03:50:02;15.60;99.90
22192;DHT22;11261;52.456;10.850;2022-07-06T03:52:31;15.60;99.90
22192;DHT22;11261;52.456;10.850;2022-07-06T03:55:00;15.50;99.90
22192;DHT22;11261;52.456;10.850;2022-07-06T03:57:28;15.50;99.90
22192;DHT22;11261;52.456;10.850;2022-07-06T03:59:56;15.50;99.90
22192;DHT22;11261;52.456;10.850;2022-07-06T04:02:24;15.50;99.90
22192;DHT22;11261;52.456;10.850;2022-07-06T04:04:53;15.60;99.90
22192;DHT22;11261;52.456;10.850;2022-07-06T04:07:21;15.80;99.90
22192;DHT22;11261;52.456;10.850;2022-07-06T04:09:49;15.70;99.90
22192;DHT22;11261;52.456;10.850;2022-07-06T04:12:19;15.70;99.90
22192;DHT22;11261;52.456;10.850;2022-07-06T04:14:47;15.70;99.90
22192;DHT22;11261;52.456;10.850;2022-07-06T04:17:16;15.60;99.90
22192;DHT22;11261;52.456;10.850;2022-07-06T04:20:04;15.70;99.90
22192;DHT22;11261;52.456;10.850;2022-07-06T04:22:33;15.70;99.90
22192;DHT22;11261;52.456;10.850;2022-07-06T04:25:01;15.70;99.90
22192;DHT22;11261;52.456;10.850;2022-07-06T04:27:30;15.90;99.90
22192;DHT22;11261;52.456;10.850;2022-07-06T04:29:58;16.00;99.90
22192;DHT22;11261;52.456;10.850;2022-07-06T04:32:27;16.00;99.90
22192;DHT22;11261;52.456;10.850;2022-07-06T04:34:55;16.10;99.90
22192;DHT22;11261;52.456;10.850;2022-07-06T04:37:23;16.10;99.90
22192;DHT22;11261;52.456;10.850;2022-07-06T04:39:51;16.20;99.90
22192;DHT22;11261;52.456;10.850;2022-07-06T04:42:20;16.20;99.90
22192;DHT22;11261;52.456;10.850;2022-07-06T04:44:49;16.30;99.90
22192;DHT22;11261;52.456;10.850;2022-07-06T04:47:18;16.10;99.90
22192;DHT22;11261;52.456;10.850;2022-07-06T04:49:46;16.10;99.90
22192;DHT22;11261;52.456;10.850;2022-07-06T04:52:14;16.30;99.90
22192;DHT22;11261;52.456;10.850;2022-07-06T04:54:42;16.10;99.90
22192;DHT22;11261;52.456;10.850;2022-07-06T04:57:10;16.10;99.90
22192;DHT22;11261;52.456;10.850;2022-07-06T04:59:39;16.20;99.90
22192;DHT22;11261;52.456;10.850;2022-07-06T05:02:08;16.40;99.90
22192;DHT22;11261;52.456;10.850;2022-07-06T05:04:37;16.40;99.90
22192;DHT22;11261;52.456;10.850;2022-07-06T05:07:05;16.50;99.90
22192;DHT22;11261;52.456;10.850;2022-07-06T05:09:33;16.50;99.90
22192;DHT22;11261;52.456;10.850;2022-07-06T05:12:01;16.90;99.90
22192;DHT22;11261;52.456;10.850;2022-07-06T05:14:29;17.50;99.90
22192;DHT22;11261;52.456;10.850;2022-07-06T05:16:58;17.30;99.90
22192;DHT22;11261;52.456;10.850;2022-07-06T05:19:28;17.70;99.90
22192;DHT22;11261;52.456;10.850;2022-07-06T05:21:56;17.60;99.90
22192;DHT22;11261;52.456;10.850;2022-07-06T05:24:24;17.40;99.90
22192;DHT22;11261;52.456;10.850;2022-07-06T05:26:52;17.70;99.90
22192;DHT22;11261;52.456;10.850;2022-07-06T05:29:20;18.00;99.90
22192;DHT22;11261;52.456;10.850;2022-07-06T05:31:49;17.50;99.90
22192;DHT22;11261;52.456;10.850;2022-07-06T05:34:17;17.40;99.90
22192;DHT22;11261;52.456;10.850;2022-07-06T05:36:47;17.80;99.90
22192;DHT22;11261;52.456;10.850;2022-07-06T05:39:15;17.70;99.90
22192;DHT22;11261;52.456;10.850;2022-07-06T05:41:46;18.00;99.90
22192;DHT22;11261;52.456;10.850;2022-07-06T05:44:15;18.30;99.90
22192;DHT22;11261;52.456;10.850;2022-07-06T05:46:43;18.20;99.90
22192;DHT22;11261;52.456;10.850;2022-07-06T05:49:11;18.40;99.90
22192;DHT22;11261;52.456;10.850;2022-07-06T05:51:58;19.00;99.90
22192;DHT22;11261;52.456;10.850;2022-07-06T05:54:26;19.70;99.90
22192;DHT22;11261;52.456;10.850;2022-07-06T05:56:54;19.40;99.90
22192;DHT22;11261;52.456;10.850;2022-07-06T05:59:22;19.00;99.90
22192;DHT22;11261;52.456;10.850;2022-07-06T06:01:51;18.80;99.90
22192;DHT22;11261;52.456;10.850;2022-07-06T06:04:19;18.90;99.90
22192;DHT22;11261;52.456;10.850;2022-07-06T06:06:47;18.90;99.90
22192;DHT22;11261;52.456;10.850;2022-07-06T06:09:17;18.90;99.90
22192;DHT22;11261;52.456;10.850;2022-07-06T06:11:45;19.10;99.90
22192;DHT22;11261;52.456;10.850;2022-07-06T06:14:13;19.40;99.90
22192;DHT22;11261;52.456;10.850;2022-07-06T06:16:41;19.50;99.90
22192;DHT22;11261;52.456;10.850;2022-07-06T06:19:09;19.60;99.90
22192;DHT22;11261;52.456;10.850;2022-07-06T06:21:37;19.10;99.90
22192;DHT22;11261;52.456;10.850;2022-07-06T06:24:06;19.70;99.90
22192;DHT22;11261;52.456;10.850;2022-07-06T06:26:36;20.00;99.90
22192;DHT22;11261;52.456;10.850;2022-07-06T06:29:04;20.50;99.90
22192;DHT22;11261;52.456;10.850;2022-07-06T06:31:32;20.60;99.90
22192;DHT22;11261;52.456;10.850;2022-07-06T06:34:07;20.70;99.90
22192;DHT22;11261;52.456;10.850;2022-07-06T06:36:35;20.80;99.90
22192;DHT22;11261;52.456;10.850;2022-07-06T06:39:03;21.60;99.90
22192;DHT22;11261;52.456;10.850;2022-07-06T06:41:31;21.20;99.90
22192;DHT22;11261;52.456;10.850;2022-07-06T06:44:01;20.60;99.90
22192;DHT22;11261;52.456;10.850;2022-07-06T06:46:29;20.70;99.90
22192;DHT22;11261;52.456;10.850;2022-07-06T06:48:58;20.80;99.90
22192;DHT22;11261;52.456;10.850;2022-07-06T06:51:26;21.20;99.90
22192;DHT22;11261;52.456;10.850;2022-07-06T06:53:54;20.90;99.90
22192;DHT22;11261;52.456;10.850;2022-07-06T06:56:22;20.90;99.90
22192;DHT22;11261;52.456;10.850;2022-07-06T06:58:50;21.80;99.90
22192;DHT22;11261;52.456;10.850;2022-07-06T07:01:40;21.40;99.90
22192;DHT22;11261;52.456;10.850;2022-07-06T07:04:08;20.60;99.90
22192;DHT22;11261;52.456;10.850;2022-07-06T07:06:36;21.00;99.90
22192;DHT22;11261;52.456;10.850;2022-07-06T07:09:04;20.70;99.90
22192;DHT22;11261;52.456;10.850;2022-07-06T07:11:32;20.90;99.90
22192;DHT22;11261;52.456;10.850;2022-07-06T07:14:00;20.30;99.90
22192;DHT22;11261;52.456;10.850;2022-07-06T07:16:29;20.60;99.90
22192;DHT22;11261;52.456;10.850;2022-07-06T07:18:59;20.20;99.90
22192;DHT22;11261;52.456;10.850;2022-07-06T07:21:27;20.60;99.90
22192;DHT22;11261;52.456;10.850;2022-07-06T07:23:55;20.80;99.90
22192;DHT22;11261;52.456;10.850;2022-07-06T07:26:23;20.40;99.90
22192;DHT22;11261;52.456;10.850;2022-07-06T07:28:51;20.60;99.90
22192;DHT22;11261;52.456;10.850;2022-07-06T07:31:19;21.20;99.90
22192;DHT22;11261;52.456;10.850;2022-07-06T07:33:48;20.90;99.90
22192;DHT22;11261;52.456;10.850;2022-07-06T07:36:26;21.10;99.90
22192;DHT22;11261;52.456;10.850;2022-07-06T07:38:54;21.10;99.90
22192;DHT22;11261;52.456;10.850;2022-07-06T07:41:22;20.90;99.90
22192;DHT22;11261;52.456;10.850;2022-07-06T07:43:50;20.80;99.90
22192;DHT22;11261;52.456;10.850;2022-07-06T07:46:18;20.60;99.90
22192;DHT22;11261;52.456;10.850;2022-07-06T07:48:47;20.30;99.90
22192;DHT22;11261;52.456;10.850;2022-07-06T07:51:15;20.50;99.90
22192;DHT22;11261;52.456;10.850;2022-07-06T07:53:46;20.90;99.90
22192;DHT22;11261;52.456;10.850;2022-07-06T07:56:14;20.90;99.90
22192;DHT22;11261;52.456;10.850;2022-07-06T07:58:42;21.60;99.90
22192;DHT22;11261;52.456;10.850;2022-07-06T08:01:10;21.20;99.90
22192;DHT22;11261;52.456;10.850;2022-07-06T08:03:39;21.50;99.90
22192;DHT22;11261;52.456;10.850;2022-07-06T08:06:07;21.20;99.90
22192;DHT22;11261;52.456;10.850;2022-07-06T08:08:35;21.10;99.90
22192;DHT22;11261;52.456;10.850;2022-07-06T08:11:05;21.10;99.90
22192;DHT22;11261;52.456;10.850;2022-07-06T08:13:44;21.20;99.90
22192;DHT22;11261;52.456;10.850;2022-07-06T08:16:13;21.60;99.90
22192;DHT22;11261;52.456;10.850;2022-07-06T08:18:41;21.50;99.90
22192;DHT22;11261;52.456;10.850;2022-07-06T08:21:09;21.10;99.90
22192;DHT22;11261;52.456;10.850;2022-07-06T08:23:54;21.50;99.90
22192;DHT22;11261;52.456;10.850;2022-07-06T08:26:24;21.50;99.90
22192;DHT22;11261;52.456;10.850;2022-07-06T08:28:52;21.60;99.90
22192;DHT22;11261;52.456;10.850;2022-07-06T08:31:21;21.80;99.90
22192;DHT22;11261;52.456;10.850;2022-07-06T08:34:09;21.60;99.90
22192;DHT22;11261;52.456;10.850;2022-07-06T08:36:37;21.90;99.90
22192;DHT22;11261;52.456;10.850;2022-07-06T08:39:05;21.60;99.90
22192;DHT22;11261;52.456;10.850;2022-07-06T08:41:36;21.80;99.90
22192;DHT22;11261;52.456;10.850;2022-07-06T08:44:06;22.00;99.70
22192;DHT22;11261;52.456;10.850;2022-07-06T08:46:37;21.80;99.70
22192;DHT22;11261;52.456;10.850;2022-07-06T08:49:07;22.30;99.90
22192;DHT22;11261;52.456;10.850;2022-07-06T08:51:36;22.50;98.70
22192;DHT22;11261;52.456;10.850;2022-07-06T08:54:04;22.00;98.90
22192;DHT22;11261;52.456;10.850;2022-07-06T08:56:33;22.40;99.30
22192;DHT22;11261;52.456;10.850;2022-07-06T08:59:03;22.90;97.80
22192;DHT22;11261;52.456;10.850;2022-07-06T09:01:31;23.40;97.20
22192;DHT22;11261;52.456;10.850;2022-07-06T09:04:03;23.00;97.50
22192;DHT22;11261;52.456;10.850;2022-07-06T09:06:33;22.50;97.80
22192;DHT22;11261;52.456;10.850;2022-07-06T09:09:05;22.30;97.40
22192;DHT22;11261;52.456;10.850;2022-07-06T09:11:34;22.50;97.00
22192;DHT22;11261;52.456;10.850;2022-07-06T09:14:06;22.50;96.70
22192;DHT22;11261;52.456;10.850;2022-07-06T09:16:34;23.50;97.30
22192;DHT22;11261;52.456;10.850;2022-07-06T09:19:06;24.00;97.30
22192;DHT22;11261;52.456;10.850;2022-07-06T09:21:35;23.70;96.90
22192;DHT22;11261;52.456;10.850;2022-07-06T09:24:07;23.80;96.10
22192;DHT22;11261;52.456;10.850;2022-07-06T09:26:37;23.90;96.20
22192;DHT22;11261;52.456;10.850;2022-07-06T09:29:07;24.20;96.20
22192;DHT22;11261;52.456;10.850;2022-07-06T09:31:35;23.50;95.90
22192;DHT22;11261;52.456;10.850;2022-07-06T09:34:04;22.90;95.20
22192;DHT22;11261;52.456;10.850;2022-07-06T09:36:44;23.60;96.10
22192;DHT22;11261;52.456;10.850;2022-07-06T09:39:22;22.70;96.10
22192;DHT22;11261;52.456;10.850;2022-07-06T09:41:53;23.10;95.70
22192;DHT22;11261;52.456;10.850;2022-07-06T09:44:24;22.70;95.50
22192;DHT22;11261;52.456;10.850;2022-07-06T09:46:55;22.50;95.90
22192;DHT22;11261;52.456;10.850;2022-07-06T09:49:24;22.50;95.40
22192;DHT22;11261;52.456;10.850;2022-07-06T09:51:54;22.20;95.50
22192;DHT22;11261;52.456;10.850;2022-07-06T09:54:22;22.90;93.80
22192;DHT22;11261;52.456;10.850;2022-07-06T09:56:52;23.40;94.30
22192;DHT22;11261;52.456;10.850;2022-07-06T09:59:23;23.50;93.90
22192;DHT22;11261;52.456;10.850;2022-07-06T10:01:54;23.00;93.30
22192;DHT22;11261;52.456;10.850;2022-07-06T10:04:24;23.00;93.80
22192;DHT22;11261;52.456;10.850;2022-07-06T10:06:53;23.60;93.30
22192;DHT22;11261;52.456;10.850;2022-07-06T10:09:23;23.30;92.80
22192;DHT22;11261;52.456;10.850;2022-07-06T10:11:53;23.60;91.80
22192;DHT22;11261;52.456;10.850;2022-07-06T10:14:24;24.00;90.50
22192;DHT22;11261;52.456;10.850;2022-07-06T10:16:52;23.40;91.50
22192;DHT22;11261;52.456;10.850;2022-07-06T10:19:21;23.40;91.50
22192;DHT22;11261;52.456;10.850;2022-07-06T10:21:50;22.90;91.30
22192;DHT22;11261;52.456;10.850;2022-07-06T10:24:20;23.20;91.70
22192;DHT22;11261;52.456;10.850;2022-07-06T10:26:49;22.80;90.70
22192;DHT22;11261;52.456;10.850;2022-07-06T10:29:17;23.10;91.70
22192;DHT22;11261;52.456;10.850;2022-07-06T10:31:48;23.70;91.50
22192;DHT22;11261;52.456;10.850;2022-07-06T10:34:19;23.10;90.40
22192;DHT22;11261;52.456;10.850;2022-07-06T10:36:49;23.20;91.60
22192;DHT22;11261;52.456;10.850;2022-07-06T10:39:32;22.90;91.50
22192;DHT22;11261;52.456;10.850;2022-07-06T10:42:39;23.20;91.70
22192;DHT22;11261;52.456;10.850;2022-07-06T10:45:09;23.40;91.10
22192;DHT22;11261;52.456;10.850;2022-07-06T10:47:40;23.60;91.10
22192;DHT22;11261;52.456;10.850;2022-07-06T10:50:09;23.00;91.10
22192;DHT22;11261;52.456;10.850;2022-07-06T10:52:53;23.40;91.70
22192;DHT22;11261;52.456;10.850;2022-07-06T10:55:29;23.40;91.20
22192;DHT22;11261;52.456;10.850;2022-07-06T10:57:58;23.10;91.20
22192;DHT22;11261;52.456;10.850;2022-07-06T11:00:49;23.20;90.90
22192;DHT22;11261;52.456;10.850;2022-07-06T11:03:35;23.20;90.50
22192;DHT22;11261;52.456;10.850;2022-07-06T11:06:06;23.10;90.50
22192;DHT22;11261;52.456;10.850;2022-07-06T11:08:48;23.30;89.60
22192;DHT22;11261;52.456;10.850;2022-07-06T11:11:18;23.60;89.20
22192;DHT22;11261;52.456;10.850;2022-07-06T11:13:55;23.50;90.00
22192;DHT22;11261;52.456;10.850;2022-07-06T11:16:25;23.50;90.20
22192;DHT22;11261;52.456;10.850;2022-07-06T11:19:05;23.40;90.10
22192;DHT22;11261;52.456;10.850;2022-07-06T11:21:36;23.60;90.50
22192;DHT22;11261;52.456;10.850;2022-07-06T11:24:06;23.60;88.90
22192;DHT22;11261;52.456;10.850;2022-07-06T11:26:35;23.60;90.00
22192;DHT22;11261;52.456;10.850;2022-07-06T11:29:09;23.40;90.60
22192;DHT22;11261;52.456;10.850;2022-07-06T11:31:39;23.80;90.50
22192;DHT22;11261;52.456;10.850;2022-07-06T11:34:10;23.60;90.00
22192;DHT22;11261;52.456;10.850;2022-07-06T11:36:40;23.20;90.30
22192;DHT22;11261;52.456;10.850;2022-07-06T11:39:12;23.30;90.10
22192;DHT22;11261;52.456;10.850;2022-07-06T11:41:41;23.50;90.50
22192;DHT22;11261;52.456;10.850;2022-07-06T11:44:16;23.40;90.20
22192;DHT22;11261;52.456;10.850;2022-07-06T11:46:45;23.60;90.90
22192;DHT22;11261;52.456;10.850;2022-07-06T11:49:14;23.10;90.70
22192;DHT22;11261;52.456;10.850;2022-07-06T11:51:44;23.10;91.00
22192;DHT22;11261;52.456;10.850;2022-07-06T11:54:14;22.80;91.00
22192;DHT22;11261;52.456;10.850;2022-07-06T11:56:49;23.10;90.90
22192;DHT22;11261;52.456;10.850;2022-07-06T11:59:21;23.10;91.10
22192;DHT22;11261;52.456;10.850;2022-07-06T12:01:57;23.40;90.50
22192;DHT22;11261;52.456;10.850;2022-07-06T12:04:26;23.80;90.20
22192;DHT22;11261;52.456;10.850;2022-07-06T12:06:55;24.00;90.20
22192;DHT22;11261;52.456;10.850;2022-07-06T12:09:29;23.80;90.00
22192;DHT22;11261;52.456;10.850;2022-07-06T12:11:58;23.80;90.00
22192;DHT22;11261;52.456;10.850;2022-07-06T12:14:29;23.80;90.70
22192;DHT22;11261;52.456;10.850;2022-07-06T12:17:03;23.80;90.50
22192;DHT22;11261;52.456;10.850;2022-07-06T12:19:33;24.10;90.20
22192;DHT22;11261;52.456;10.850;2022-07-06T12:22:03;23.80;90.20
22192;DHT22;11261;52.456;10.850;2022-07-06T12:24:32;23.70;90.30
22192;DHT22;11261;52.456;10.850;2022-07-06T12:27:11;23.20;90.10
22192;DHT22;11261;52.456;10.850;2022-07-06T12:29:39;23.10;91.10
22192;DHT22;11261;52.456;10.850;2022-07-06T12:32:14;23.10;91.10
22192;DHT22;11261;52.456;10.850;2022-07-06T12:34:44;23.40;90.10
22192;DHT22;11261;52.456;10.850;2022-07-06T12:37:13;23.80;89.90
22192;DHT22;11261;52.456;10.850;2022-07-06T12:39:43;23.70;87.40
22192;DHT22;11261;52.456;10.850;2022-07-06T12:42:14;23.80;89.10
22192;DHT22;11261;52.456;10.850;2022-07-06T12:44:46;23.90;88.20
22192;DHT22;11261;52.456;10.850;2022-07-06T12:47:18;24.00;87.20
22192;DHT22;11261;52.456;10.850;2022-07-06T12:50:04;24.20;87.20
22192;DHT22;11261;52.456;10.850;2022-07-06T12:52:32;23.80;87.80
22192;DHT22;11261;52.456;10.850;2022-07-06T12:55:02;23.70;89.10
22192;DHT22;11261;52.456;10.850;2022-07-06T12:57:43;23.70;89.20
22192;DHT22;11261;52.456;10.850;2022-07-06T13:00:12;23.40;89.60
22192;DHT22;11261;52.456;10.850;2022-07-06T13:02:44;23.70;89.80
22192;DHT22;11261;52.456;10.850;2022-07-06T13:05:34;23.50;88.90
22192;DHT22;11261;52.456;10.850;2022-07-06T13:08:02;23.50;88.40
22192;DHT22;11261;52.456;10.850;2022-07-06T13:10:31;23.80;87.40
22192;DHT22;11261;52.456;10.850;2022-07-06T13:13:00;23.60;87.30
22192;DHT22;11261;52.456;10.850;2022-07-06T13:15:28;23.50;86.70
22192;DHT22;11261;52.456;10.850;2022-07-06T13:17:56;23.70;85.60
22192;DHT22;11261;52.456;10.850;2022-07-06T13:20:24;23.90;84.70
22192;DHT22;11261;52.456;10.850;2022-07-06T13:22:54;23.80;83.70
22192;DHT22;11261;52.456;10.850;2022-07-06T13:25:22;23.80;84.40
22192;DHT22;11261;52.456;10.850;2022-07-06T13:27:50;23.80;82.50
22192;DHT22;11261;52.456;10.850;2022-07-06T13:30:18;23.90;84.30
22192;DHT22;11261;52.456;10.850;2022-07-06T13:32:47;24.00;82.60
22192;DHT22;11261;52.456;10.850;2022-07-06T13:35:15;23.60;80.40
22192;DHT22;11261;52.456;10.850;2022-07-06T13:37:45;24.00;84.10
22192;DHT22;11261;52.456;10.850;2022-07-06T13:40:15;24.10;81.80
22192;DHT22;11261;52.456;10.850;2022-07-06T13:42:43;24.20;83.50
22192;DHT22;11261;52.456;10.850;2022-07-06T13:45:12;24.10;82.60
22192;DHT22;11261;52.456;10.850;2022-07-06T13:47:40;24.40;84.80
22192;DHT22;11261;52.456;10.850;2022-07-06T13:50:09;24.30;82.90
22192;DHT22;11261;52.456;10.850;2022-07-06T13:52:37;24.50;83.50
22192;DHT22;11261;52.456;10.850;2022-07-06T13:55:07;24.40;83.60
22192;DHT22;11261;52.456;10.850;2022-07-06T13:57:38;24.00;84.00
22192;DHT22;11261;52.456;10.850;2022-07-06T14:00:09;23.10;85.60
22192;DHT22;11261;52.456;10.850;2022-07-06T14:02:38;23.30;86.40
22192;DHT22;11261;52.456;10.850;2022-07-06T14:05:07;23.20;85.90
22192;DHT22;11261;52.456;10.850;2022-07-06T14:07:35;22.80;87.00
22192;DHT22;11261;52.456;10.850;2022-07-06T14:10:05;22.40;88.10
22192;DHT22;11261;52.456;10.850;2022-07-06T14:12:33;22.60;88.40
22192;DHT22;11261;52.456;10.850;2022-07-06T14:15:03;22.60;88.10
22192;DHT22;11261;52.456;10.850;2022-07-06T14:17:31;23.20;87.30
22192;DHT22;11261;52.456;10.850;2022-07-06T14:19:59;22.70;88.00
22192;DHT22;11261;52.456;10.850;2022-07-06T14:22:28;23.00;87.70
22192;DHT22;11261;52.456;10.850;2022-07-06T14:24:56;22.80;87.30
22192;DHT22;11261;52.456;10.850;2022-07-06T14:27:24;22.70;87.80
22192;DHT22;11261;52.456;10.850;2022-07-06T14:29:52;22.60;88.20
22192;DHT22;11261;52.456;10.850;2022-07-06T14:32:22;22.70;87.40
22192;DHT22;11261;52.456;10.850;2022-07-06T14:34:50;23.70;87.20
22192;DHT22;11261;52.456;10.850;2022-07-06T14:37:18;23.50;86.70
22192;DHT22;11261;52.456;10.850;2022-07-06T14:39:47;23.20;88.20
22192;DHT22;11261;52.456;10.850;2022-07-06T14:42:16;23.40;87.50
22192;DHT22;11261;52.456;10.850;2022-07-06T14:44:44;23.20;87.70
22192;DHT22;11261;52.456;10.850;2022-07-06T14:47:12;22.90;87.60
22192;DHT22;11261;52.456;10.850;2022-07-06T14:49:42;22.90;87.10
22192;DHT22;11261;52.456;10.850;2022-07-06T14:52:10;23.00;86.50
22192;DHT22;11261;52.456;10.850;2022-07-06T14:54:38;23.00;86.70
22192;DHT22;11261;52.456;10.850;2022-07-06T14:57:06;23.20;87.30
22192;DHT22;11261;52.456;10.850;2022-07-06T14:59:35;23.30;86.00
22192;DHT22;11261;52.456;10.850;2022-07-06T15:02:04;23.10;85.20
22192;DHT22;11261;52.456;10.850;2022-07-06T15:04:32;23.40;86.70
22192;DHT22;11261;52.456;10.850;2022-07-06T15:07:02;23.60;85.90
22192;DHT22;11261;52.456;10.850;2022-07-06T15:09:30;23.60;84.40
22192;DHT22;11261;52.456;10.850;2022-07-06T15:11:59;23.70;85.50
22192;DHT22;11261;52.456;10.850;2022-07-06T15:14:29;23.60;85.10
22192;DHT22;11261;52.456;10.850;2022-07-06T15:16:58;23.40;85.60
22192;DHT22;11261;52.456;10.850;2022-07-06T15:19:26;23.50;85.10
22192;DHT22;11261;52.456;10.850;2022-07-06T15:21:54;24.00;85.00
22192;DHT22;11261;52.456;10.850;2022-07-06T15:24:24;24.00;84.20
22192;DHT22;11261;52.456;10.850;2022-07-06T15:26:52;23.70;84.50
22192;DHT22;11261;52.456;10.850;2022-07-06T15:29:20;23.80;85.00
22192;DHT22;11261;52.456;10.850;2022-07-06T15:31:48;23.40;85.00